Time;durP1;ratioP1;P1;durP2;ratioP2;P2;SDS_P1;SDS_P2;PMS_P1;PMS_P2;Temp;Humidity;BMP_temperature;BMP_pressure;BME280_temperature;BME280_humidity;BME280_pressure;Samples;Min_cycle;Max_cycle;Signal;HPM_P1;HPM_P2
2021/12/15 00:02:13;;;;;;;36.13;25.17;;;;;;;;;;5077389;28;20438;-79
2021/12/15 00:04:43;;;;;;;32.93;23.37;;;;;;;;;;5077200;28;20466;-80
2021/12/15 00:07:10;;;;;;;31.50;23.30;;;;;;;;;;5077310;28;20442;-79
2021/12/15 00:09:37;;;;;;;33.30;24.13;;;;;;;;;;5076815;28;20472;-79
2021/12/15 00:12:05;;;;;;;34.13;22.90;;;;;;;;;;5076690;28;20441;-78
2021/12/15 00:14:33;;;;;;;31.00;21.75;;;;;;;;;;5073131;28;20601;-79
2021/12/15 00:17:00;;;;;;;31.27;21.67;;;;;;;;;;5054131;28;20231;-79
2021/12/15 00:19:27;;;;;;;29.95;21.85;;;;;;;;;;5053583;28;20438;-80
2021/12/15 00:21:56;;;;;;;30.93;21.13;;;;;;;;;;5054476;28;20293;-79
2021/12/15 00:24:24;;;;;;;31.90;22.45;;;;;;;;;;5055091;28;20472;-79
2021/12/15 00:26:51;;;;;;;29.10;21.17;;;;;;;;;;5058355;28;20217;-79
2021/12/15 00:29:19;;;;;;;31.07;22.87;;;;;;;;;;5059394;28;20489;-79
2021/12/15 00:31:46;;;;;;;33.67;21.93;;;;;;;;;;5054306;28;20460;-79
2021/12/15 00:34:13;;;;;;;30.20;21.87;;;;;;;;;;5054528;28;20500;-79
2021/12/15 00:36:43;;;;;;;30.30;22.97;;;;;;;;;;5054638;28;20945;-79
2021/12/15 00:39:13;;;;;;;31.00;21.83;;;;;;;;;;5060641;28;20521;-80
2021/12/15 00:41:41;;;;;;;32.07;22.30;;;;;;;;;;5058133;28;20443;-81
2021/12/15 00:44:08;;;;;;;32.75;22.10;;;;;;;;;;5058097;28;20458;-80
2021/12/15 00:46:36;;;;;;;36.93;24.13;;;;;;;;;;5058205;28;20210;-79
2021/12/15 00:49:04;;;;;;;30.87;21.90;;;;;;;;;;5061783;28;20504;-79
2021/12/15 00:51:31;;;;;;;31.88;23.17;;;;;;;;;;5059010;28;20445;-79
2021/12/15 00:53:58;;;;;;;31.80;22.73;;;;;;;;;;5055390;28;20203;-80
2021/12/15 00:56:27;;;;;;;28.93;21.80;;;;;;;;;;5057474;28;20437;-79
2021/12/15 00:58:54;;;;;;;31.00;21.37;;;;;;;;;;5059413;28;20441;-79
2021/12/15 01:01:23;;;;;;;31.25;22.08;;;;;;;;;;5058986;28;20444;-79
2021/12/15 01:03:50;;;;;;;32.00;20.47;;;;;;;;;;5055613;28;20203;-80
2021/12/15 01:06:20;;;;;;;30.10;21.40;;;;;;;;;;5053573;28;20560;-79
2021/12/15 01:08:51;;;;;;;30.15;23.05;;;;;;;;;;5055270;28;20568;-80
2021/12/15 01:11:26;;;;;;;34.53;21.67;;;;;;;;;;5054395;28;20200;-79
2021/12/15 01:22:11;;;;;;;30.20;22.07;;;;;;;;;;5055045;28;20515;-79
2021/12/15 01:24:38;;;;;;;29.60;21.08;;;;;;;;;;5055855;28;20464;-80
2021/12/15 01:27:06;;;;;;;31.80;21.40;;;;;;;;;;5052282;28;20542;-79
2021/12/15 01:29:34;;;;;;;29.60;20.90;;;;;;;;;;5052142;28;20481;-80
2021/12/15 01:32:01;;;;;;;30.53;21.23;;;;;;;;;;5054723;28;20880;-80
2021/12/15 01:34:28;;;;;;;32.30;21.60;;;;;;;;;;5054828;28;20462;-80
2021/12/15 01:36:57;;;;;;;34.83;22.53;;;;;;;;;;5052792;28;20515;-79
2021/12/15 01:39:24;;;;;;;28.63;20.80;;;;;;;;;;5053022;28;20912;-80
2021/12/15 01:41:54;;;;;;;34.37;21.70;;;;;;;;;;5052853;28;20450;-80
2021/12/15 01:47:07;;;;;;;32.53;21.27;;;;;;;;;;5054397;28;20554;-80
2021/12/15 01:49:37;;;;;;;30.87;22.67;;;;;;;;;;5052757;28;20509;-80
2021/12/15 01:52:06;;;;;;;31.83;22.23;;;;;;;;;;5053294;28;20904;-79
2021/12/15 01:54:34;;;;;;;31.20;20.90;;;;;;;;;;5056619;28;20454;-80
2021/12/15 01:57:01;;;;;;;30.10;20.00;;;;;;;;;;5054504;28;20199;-80
2021/12/15 01:59:30;;;;;;;33.05;21.75;;;;;;;;;;5057350;28;20441;-80
2021/12/15 02:01:57;;;;;;;28.35;20.85;;;;;;;;;;5048053;28;20195;-79
2021/12/15 02:04:26;;;;;;;29.00;19.73;;;;;;;;;;5063582;28;20227;-80
2021/12/15 02:06:54;;;;;;;27.63;18.80;;;;;;;;;;5071161;28;20471;-79
2021/12/15 02:09:38;;;;;;;26.93;20.17;;;;;;;;;;5054636;28;20481;-79
2021/12/15 02:12:06;;;;;;;27.90;20.53;;;;;;;;;;5055896;28;20442;-78
2021/12/15 02:14:33;;;;;;;34.10;21.70;;;;;;;;;;5056391;28;20467;-80
2021/12/15 02:17:00;;;;;;;25.08;19.63;;;;;;;;;;5059616;28;20974;-79
2021/12/15 02:19:29;;;;;;;29.80;21.07;;;;;;;;;;5056441;28;20199;-79
2021/12/15 02:21:59;;;;;;;27.73;21.07;;;;;;;;;;5074994;28;20456;-78
2021/12/15 02:24:26;;;;;;;28.90;20.70;;;;;;;;;;5066246;28;20492;-79
2021/12/15 02:26:58;;;;;;;25.80;19.60;;;;;;;;;;5071648;28;20464;-78
2021/12/15 02:29:26;;;;;;;32.10;22.47;;;;;;;;;;5064765;28;20595;-78
2021/12/15 02:32:03;;;;;;;35.10;22.57;;;;;;;;;;5068140;28;20449;-78
2021/12/15 02:34:55;;;;;;;30.83;21.02;;;;;;;;;;5072896;28;20496;-78
2021/12/15 02:37:22;;;;;;;29.43;21.67;;;;;;;;;;5072641;28;20202;-79
2021/12/15 02:39:50;;;;;;;28.53;21.13;;;;;;;;;;5072635;28;20482;-79
2021/12/15 02:42:18;;;;;;;29.23;21.67;;;;;;;;;;5072667;28;20434;-79
2021/12/15 02:44:46;;;;;;;28.97;20.53;;;;;;;;;;5072533;28;20493;-78
2021/12/15 02:47:13;;;;;;;31.97;22.57;;;;;;;;;;5065941;28;20537;-78
2021/12/15 02:49:40;;;;;;;34.53;23.17;;;;;;;;;;5051628;28;20484;-79
2021/12/15 02:52:08;;;;;;;33.03;22.73;;;;;;;;;;5051631;28;20960;-79
2021/12/15 02:54:37;;;;;;;32.10;23.13;;;;;;;;;;5051157;28;20457;-79
2021/12/15 02:57:10;;;;;;;33.20;23.30;;;;;;;;;;5055183;28;20452;-79
2021/12/15 02:59:47;;;;;;;32.43;22.50;;;;;;;;;;5056837;28;20441;-79
2021/12/15 03:02:32;;;;;;;32.10;23.20;;;;;;;;;;5054008;28;20458;-79
2021/12/15 03:05:07;;;;;;;32.53;22.30;;;;;;;;;;5043608;28;20458;-79
2021/12/15 03:07:40;;;;;;;34.20;23.35;;;;;;;;;;5049241;28;20438;-78
2021/12/15 03:15:41;;;;;;;34.73;23.87;;;;;;;;;;4978535;28;20453;-78
2021/12/15 03:18:11;;;;;;;31.70;21.90;;;;;;;;;;5034919;28;20925;-79
2021/12/15 03:20:40;;;;;;;32.23;23.47;;;;;;;;;;5035587;28;20443;-79
2021/12/15 03:23:09;;;;;;;33.53;22.10;;;;;;;;;;5036391;28;20449;-78
2021/12/15 03:25:37;;;;;;;32.70;23.80;;;;;;;;;;5034361;28;20838;-79
2021/12/15 03:33:42;;;;;;;35.00;22.47;;;;;;;;;;5034164;28;20418;-79
2021/12/15 03:36:13;;;;;;;32.07;22.57;;;;;;;;;;5035774;28;20466;-78
2021/12/15 03:38:41;;;;;;;33.97;23.63;;;;;;;;;;5035551;28;20449;-80
2021/12/15 03:41:10;;;;;;;32.40;22.20;;;;;;;;;;5034686;28;20199;-79
2021/12/15 03:43:38;;;;;;;28.63;20.33;;;;;;;;;;5034272;28;20443;-79
2021/12/15 03:46:07;;;;;;;30.30;22.57;;;;;;;;;;5033797;28;20462;-80
2021/12/15 03:48:35;;;;;;;31.93;21.87;;;;;;;;;;5035279;28;20494;-79
2021/12/15 03:51:02;;;;;;;32.37;23.90;;;;;;;;;;5034343;28;20497;-78
2021/12/15 03:53:30;;;;;;;31.00;21.23;;;;;;;;;;5038127;28;20456;-79
2021/12/15 03:55:58;;;;;;;34.10;22.30;;;;;;;;;;5034757;28;20294;-78
2021/12/15 03:58:27;;;;;;;35.90;24.27;;;;;;;;;;5036080;28;20443;-79
2021/12/15 04:00:58;;;;;;;34.20;23.50;;;;;;;;;;5034476;28;20447;-79
2021/12/15 04:03:27;;;;;;;29.05;21.17;;;;;;;;;;5054013;28;20441;-79
2021/12/15 04:05:54;;;;;;;31.07;22.43;;;;;;;;;;5053081;28;20215;-79
2021/12/15 04:08:22;;;;;;;32.40;22.33;;;;;;;;;;5051985;28;20445;-79
2021/12/15 04:10:49;;;;;;;32.10;22.47;;;;;;;;;;5054331;28;20454;-79
2021/12/15 04:13:16;;;;;;;32.67;22.70;;;;;;;;;;5053622;28;20496;-79
2021/12/15 04:15:52;;;;;;;31.63;21.80;;;;;;;;;;5053535;28;20458;-78
2021/12/15 04:18:19;;;;;;;34.20;24.20;;;;;;;;;;5053890;28;20453;-78
2021/12/15 04:20:46;;;;;;;32.40;21.85;;;;;;;;;;5058456;28;20524;-79
2021/12/15 04:23:18;;;;;;;32.10;22.70;;;;;;;;;;5055491;28;20272;-78
2021/12/15 04:25:46;;;;;;;33.67;22.33;;;;;;;;;;5055514;28;20484;-79
2021/12/15 04:28:15;;;;;;;30.33;21.50;;;;;;;;;;5054807;28;20453;-78
2021/12/15 04:30:45;;;;;;;29.67;21.10;;;;;;;;;;5062548;28;20441;-79
2021/12/15 04:33:15;;;;;;;31.07;21.80;;;;;;;;;;5063259;28;20915;-80
2021/12/15 04:35:42;;;;;;;29.07;22.10;;;;;;;;;;5067159;28;20458;-78
2021/12/15 04:38:10;;;;;;;27.00;21.20;;;;;;;;;;5063781;28;20430;-79
2021/12/15 04:40:37;;;;;;;31.77;21.73;;;;;;;;;;5063589;28;20460;-79
2021/12/15 04:43:04;;;;;;;30.17;21.70;;;;;;;;;;5069589;28;20196;-79
2021/12/15 04:45:31;;;;;;;28.30;20.65;;;;;;;;;;5071855;28;20466;-79
2021/12/15 04:47:58;;;;;;;31.80;21.63;;;;;;;;;;5059701;28;20211;-79
2021/12/15 04:50:28;;;;;;;31.00;21.80;;;;;;;;;;5060308;28;20491;-78
2021/12/15 04:52:59;;;;;;;30.40;20.83;;;;;;;;;;5059110;28;20431;-80
2021/12/15 04:55:28;;;;;;;30.90;22.67;;;;;;;;;;5058540;28;20477;-78
2021/12/15 04:57:55;;;;;;;29.87;21.57;;;;;;;;;;5060387;28;20441;-79
2021/12/15 05:00:26;;;;;;;35.93;23.13;;;;;;;;;;5057233;28;20442;-79
2021/12/15 05:02:53;;;;;;;30.60;22.40;;;;;;;;;;5056725;28;20461;-79
2021/12/15 05:05:20;;;;;;;28.83;21.17;;;;;;;;;;5057454;28;20803;-78
2021/12/15 05:07:49;;;;;;;32.10;22.90;;;;;;;;;;5054410;28;20196;-79
2021/12/15 05:10:17;;;;;;;27.35;21.10;;;;;;;;;;5054651;28;20499;-80
2021/12/15 05:12:44;;;;;;;26.07;20.23;;;;;;;;;;5054991;28;20205;-79
2021/12/15 05:15:12;;;;;;;30.57;24.00;;;;;;;;;;5055293;28;20474;-79
2021/12/15 05:17:39;;;;;;;29.90;20.43;;;;;;;;;;5058592;28;20433;-78
2021/12/15 05:20:08;;;;;;;27.57;21.00;;;;;;;;;;5055778;28;20446;-78
2021/12/15 05:22:36;;;;;;;24.20;18.53;;;;;;;;;;5057063;28;20461;-79
2021/12/15 05:25:06;;;;;;;23.83;19.33;;;;;;;;;;5058137;28;20468;-80
2021/12/15 05:27:34;;;;;;;28.13;21.33;;;;;;;;;;5055845;28;20445;-78
2021/12/15 05:30:01;;;;;;;31.93;21.63;;;;;;;;;;5056894;28;20523;-79
2021/12/15 05:32:28;;;;;;;27.25;20.27;;;;;;;;;;5059069;28;20430;-80
2021/12/15 05:34:58;;;;;;;26.73;18.83;;;;;;;;;;5056400;28;20228;-79
2021/12/15 05:37:25;;;;;;;25.07;19.00;;;;;;;;;;5054783;28;20560;-78
2021/12/15 05:39:53;;;;;;;24.73;18.73;;;;;;;;;;5055469;28;20441;-78
2021/12/15 05:42:24;;;;;;;22.53;18.37;;;;;;;;;;5057928;28;20442;-79
2021/12/15 05:44:52;;;;;;;26.97;19.43;;;;;;;;;;5056430;28;20491;-79
2021/12/15 05:47:20;;;;;;;21.27;18.83;;;;;;;;;;5054635;28;20430;-79
2021/12/15 05:49:48;;;;;;;25.63;18.60;;;;;;;;;;5054349;28;20509;-80
2021/12/15 05:52:15;;;;;;;24.03;18.33;;;;;;;;;;5054298;28;20442;-80
2021/12/15 05:54:42;;;;;;;22.40;17.40;;;;;;;;;;5053200;28;20493;-78
2021/12/15 05:57:09;;;;;;;21.57;17.43;;;;;;;;;;5054337;28;20865;-80
2021/12/15 05:59:38;;;;;;;21.27;17.80;;;;;;;;;;5055516;28;20444;-80
2021/12/15 06:02:06;;;;;;;17.87;15.40;;;;;;;;;;5054428;28;20445;-80
2021/12/15 06:04:33;;;;;;;17.07;14.87;;;;;;;;;;5053540;28;20811;-80
2021/12/15 06:07:00;;;;;;;16.33;14.60;;;;;;;;;;5054249;28;20450;-81
2021/12/15 06:09:27;;;;;;;15.33;13.73;;;;;;;;;;5053443;28;20473;-79
2021/12/15 06:11:54;;;;;;;16.13;14.50;;;;;;;;;;5053773;28;20921;-79
2021/12/15 06:14:26;;;;;;;18.70;14.57;;;;;;;;;;5054869;28;20557;-79
2021/12/15 06:16:55;;;;;;;16.42;13.63;;;;;;;;;;5055254;28;20507;-79
2021/12/15 06:19:23;;;;;;;16.67;13.90;;;;;;;;;;5053701;28;20221;-80
2021/12/15 06:21:50;;;;;;;16.20;14.47;;;;;;;;;;5055006;28;20453;-80
2021/12/15 06:24:17;;;;;;;19.27;15.80;;;;;;;;;;5053761;28;20452;-79
2021/12/15 06:26:44;;;;;;;15.20;13.53;;;;;;;;;;5055025;28;20445;-80
2021/12/15 06:29:11;;;;;;;16.57;14.77;;;;;;;;;;5055665;28;20484;-79
2021/12/15 06:31:39;;;;;;;17.77;15.33;;;;;;;;;;5059357;28;20860;-79
2021/12/15 06:34:07;;;;;;;18.30;16.37;;;;;;;;;;5058840;28;20461;-80
2021/12/15 06:36:35;;;;;;;38.63;30.80;;;;;;;;;;5058840;28;20448;-79
2021/12/15 06:39:02;;;;;;;18.17;14.77;;;;;;;;;;5063277;28;20442;-80
2021/12/15 06:41:29;;;;;;;19.23;15.83;;;;;;;;;;5063527;28;20199;-79
2021/12/15 06:43:58;;;;;;;15.03;13.50;;;;;;;;;;5059908;28;20806;-79
2021/12/15 07:00:30;;;;;;;17.60;15.70;;;;;;;;;;5056380;28;20417;-80
2021/12/15 07:02:57;;;;;;;19.67;16.10;;;;;;;;;;5042533;28;20453;-79
2021/12/15 07:05:26;;;;;;;19.63;14.70;;;;;;;;;;5036968;28;20473;-80
2021/12/15 07:07:54;;;;;;;20.07;15.47;;;;;;;;;;5037024;28;20485;-79
2021/12/15 07:10:23;;;;;;;19.27;15.27;;;;;;;;;;5035898;28;20478;-78
2021/12/15 07:12:50;;;;;;;18.17;15.17;;;;;;;;;;5038423;28;20442;-81
2021/12/15 07:15:18;;;;;;;19.00;16.10;;;;;;;;;;5038233;28;20489;-79
2021/12/15 07:17:47;;;;;;;19.63;16.43;;;;;;;;;;5037636;28;20434;-79
2021/12/15 07:23:02;;;;;;;21.33;17.67;;;;;;;;;;5037478;28;20803;-80
2021/12/15 07:25:30;;;;;;;21.03;16.90;;;;;;;;;;5039985;28;20481;-80
2021/12/15 07:27:58;;;;;;;21.43;17.00;;;;;;;;;;5038774;28;20503;-80
2021/12/15 07:30:25;;;;;;;22.97;18.67;;;;;;;;;;5036759;28;20556;-79
2021/12/15 07:32:52;;;;;;;22.17;18.30;;;;;;;;;;5041507;28;20446;-79
2021/12/15 07:35:20;;;;;;;20.63;16.90;;;;;;;;;;5045370;28;20220;-80
2021/12/15 07:37:47;;;;;;;23.60;18.08;;;;;;;;;;5048591;28;20443;-79
2021/12/15 07:40:20;;;;;;;20.00;16.40;;;;;;;;;;5040389;28;20290;-80
2021/12/15 07:42:56;;;;;;;20.97;16.90;;;;;;;;;;5046302;28;20454;-81
2021/12/15 07:45:24;;;;;;;21.80;17.00;;;;;;;;;;5048796;28;20493;-80
2021/12/15 07:47:52;;;;;;;19.75;15.90;;;;;;;;;;5047428;28;20474;-80
2021/12/15 07:50:20;;;;;;;19.93;16.53;;;;;;;;;;5045469;28;20710;-80
2021/12/15 07:52:47;;;;;;;18.03;15.77;;;;;;;;;;5039088;28;20813;-80
2021/12/15 07:55:16;;;;;;;18.70;15.53;;;;;;;;;;5037494;28;20479;-79
2021/12/15 07:57:43;;;;;;;21.07;18.80;;;;;;;;;;5036774;28;20512;-79
2021/12/15 08:00:12;;;;;;;18.37;15.73;;;;;;;;;;5036416;28;20798;-79
2021/12/15 08:02:39;;;;;;;17.80;15.90;;;;;;;;;;5047488;28;20445;-79
2021/12/15 08:05:06;;;;;;;21.10;16.63;;;;;;;;;;5058902;28;20480;-79
2021/12/15 08:07:33;;;;;;;17.33;14.83;;;;;;;;;;5057712;28;20434;-80
2021/12/15 08:10:03;;;;;;;18.47;15.33;;;;;;;;;;5058043;28;20556;-80
2021/12/15 08:12:31;;;;;;;16.77;14.90;;;;;;;;;;5057471;28;20462;-79
2021/12/15 08:14:58;;;;;;;15.90;14.20;;;;;;;;;;5056496;28;20469;-79
2021/12/15 08:17:25;;;;;;;17.20;15.10;;;;;;;;;;5055748;28;20984;-78
2021/12/15 08:19:52;;;;;;;19.40;15.90;;;;;;;;;;5055791;28;20441;-79
2021/12/15 08:22:19;;;;;;;16.02;14.27;;;;;;;;;;5059101;28;20452;-81
2021/12/15 08:24:46;;;;;;;14.85;13.25;;;;;;;;;;5058697;28;20282;-79
2021/12/15 08:27:14;;;;;;;16.37;12.53;;;;;;;;;;5057062;28;20207;-79
2021/12/15 08:29:42;;;;;;;14.03;12.30;;;;;;;;;;5057278;28;20469;-79
2021/12/15 08:32:09;;;;;;;13.47;12.07;;;;;;;;;;5057036;28;20983;-80
2021/12/15 08:34:36;;;;;;;14.73;12.93;;;;;;;;;;5056113;28;20450;-79
2021/12/15 08:37:05;;;;;;;15.50;12.83;;;;;;;;;;5055927;28;20438;-80
2021/12/15 08:39:32;;;;;;;11.52;9.95;;;;;;;;;;5059116;28;20467;-79
2021/12/15 08:41:59;;;;;;;12.10;10.90;;;;;;;;;;5056658;28;20202;-79
2021/12/15 08:44:26;;;;;;;12.00;10.70;;;;;;;;;;5056838;28;20837;-80
2021/12/15 08:46:55;;;;;;;11.90;10.77;;;;;;;;;;5062786;28;20438;-79
2021/12/15 08:49:23;;;;;;;10.07;9.07;;;;;;;;;;5056917;28;20442;-79
2021/12/15 08:51:51;;;;;;;10.53;9.07;;;;;;;;;;5062049;28;20545;-80
2021/12/15 08:54:19;;;;;;;12.80;10.37;;;;;;;;;;5057785;28;20556;-79
2021/12/15 08:56:47;;;;;;;10.97;9.77;;;;;;;;;;5056760;28;20770;-80
2021/12/15 08:59:14;;;;;;;10.13;9.13;;;;;;;;;;5057751;28;20449;-80
2021/12/15 09:01:42;;;;;;;10.03;8.90;;;;;;;;;;5054567;28;20439;-79
2021/12/15 09:04:10;;;;;;;9.37;8.37;;;;;;;;;;5050866;28;20461;-79
2021/12/15 09:06:39;;;;;;;9.87;8.83;;;;;;;;;;5055649;28;20430;-80
2021/12/15 09:09:07;;;;;;;11.73;9.83;;;;;;;;;;5065831;28;20449;-80
2021/12/15 09:11:34;;;;;;;10.30;8.87;;;;;;;;;;5061758;28;20560;-80
2021/12/15 09:14:02;;;;;;;9.33;7.20;;;;;;;;;;5057621;28;20445;-80
2021/12/15 09:16:30;;;;;;;8.93;8.00;;;;;;;;;;5058150;28;20948;-79
2021/12/15 09:18:59;;;;;;;9.37;8.40;;;;;;;;;;5056944;28;20442;-79
2021/12/15 09:21:28;;;;;;;8.07;7.37;;;;;;;;;;5066331;28;20438;-79
2021/12/15 09:23:55;;;;;;;8.53;7.07;;;;;;;;;;5072208;28;20441;-80
2021/12/15 09:26:25;;;;;;;10.93;8.23;;;;;;;;;;5055158;28;20453;-80
2021/12/15 09:28:52;;;;;;;9.47;8.43;;;;;;;;;;5055525;28;20864;-79
2021/12/15 09:31:20;;;;;;;8.63;7.83;;;;;;;;;;5056065;28;20479;-81
2021/12/15 09:33:48;;;;;;;9.23;8.33;;;;;;;;;;5056153;28;20444;-78
2021/12/15 09:36:16;;;;;;;9.87;8.87;;;;;;;;;;5055709;28;20465;-79
2021/12/15 09:38:45;;;;;;;11.53;9.43;;;;;;;;;;5055044;28;20526;-80
2021/12/15 09:41:14;;;;;;;10.33;9.20;;;;;;;;;;5055485;28;20433;-80
2021/12/15 09:43:43;;;;;;;9.30;8.40;;;;;;;;;;5055690;28;20543;-80
2021/12/15 09:46:14;;;;;;;10.60;9.50;;;;;;;;;;5056433;28;20469;-79
2021/12/15 09:57:26;;;;;;;8.30;7.50;;;;;;;;;;5059206;28;20436;-80
2021/12/15 10:02:47;;;;;;;9.37;8.47;;;;;;;;;;5045826;28;20492;-79
2021/12/15 10:05:30;;;;;;;8.60;7.70;;;;;;;;;;5049285;28;20470;-80
2021/12/15 10:10:49;;;;;;;7.47;6.77;;;;;;;;;;5046545;28;20222;-79
2021/12/15 10:18:53;;;;;;;8.17;7.20;;;;;;;;;;5039035;28;20506;-79
2021/12/15 10:21:23;;;;;;;8.60;7.80;;;;;;;;;;5039960;28;20442;-80
2021/12/15 10:23:51;;;;;;;7.70;6.93;;;;;;;;;;5041610;28;20454;-79
2021/12/15 10:26:20;;;;;;;6.83;6.13;;;;;;;;;;5040772;28;20465;-79
2021/12/15 10:28:52;;;;;;;6.10;5.57;;;;;;;;;;5039189;28;20456;-80
2021/12/15 10:31:20;;;;;;;6.80;6.20;;;;;;;;;;5040010;28;20504;-81
2021/12/15 10:33:49;;;;;;;5.40;4.87;;;;;;;;;;5040000;28;20457;-80
2021/12/15 10:36:19;;;;;;;5.93;5.53;;;;;;;;;;5040180;28;20941;-81
2021/12/15 10:38:47;;;;;;;6.40;5.90;;;;;;;;;;5040464;28;20431;-81
2021/12/15 10:41:16;;;;;;;6.63;6.00;;;;;;;;;;5040185;28;20435;-81
2021/12/15 10:43:47;;;;;;;6.73;5.93;;;;;;;;;;5040209;28;20442;-80
2021/12/15 10:46:15;;;;;;;7.73;6.90;;;;;;;;;;5042174;28;20477;-80
2021/12/15 10:48:45;;;;;;;8.90;8.00;;;;;;;;;;5038342;28;20529;-79
2021/12/15 10:51:23;;;;;;;9.87;8.87;;;;;;;;;;5039716;28;20497;-80
2021/12/15 10:53:50;;;;;;;7.70;7.00;;;;;;;;;;5038758;28;20438;-79
2021/12/15 10:56:19;;;;;;;7.70;7.10;;;;;;;;;;5042952;28;20561;-79
2021/12/15 10:58:49;;;;;;;8.77;7.50;;;;;;;;;;5038347;28;20210;-80
2021/12/15 11:01:34;;;;;;;8.90;8.00;;;;;;;;;;5039324;28;20446;-79
2021/12/15 11:04:02;;;;;;;9.82;8.93;;;;;;;;;;5038964;28;20462;-81
2021/12/15 11:06:33;;;;;;;8.95;8.15;;;;;;;;;;5041834;28;20205;-80
2021/12/15 11:09:13;;;;;;;8.80;7.90;;;;;;;;;;5038792;28;20208;-80
2021/12/15 11:11:55;;;;;;;8.88;8.07;;;;;;;;;;5056358;28;20508;-80
2021/12/15 11:14:29;;;;;;;8.73;8.03;;;;;;;;;;5058576;28;20218;-80
2021/12/15 11:17:04;;;;;;;9.20;8.30;;;;;;;;;;5059355;28;20535;-80
2021/12/15 11:19:39;;;;;;;9.27;8.47;;;;;;;;;;5058339;28;20441;-80
2021/12/15 11:22:30;;;;;;;11.40;10.20;;;;;;;;;;5059013;28;20438;-79
2021/12/15 11:24:57;;;;;;;10.00;9.00;;;;;;;;;;5058242;28;20531;-80
2021/12/15 11:27:24;;;;;;;8.57;7.88;;;;;;;;;;5061029;28;20453;-80
2021/12/15 11:29:52;;;;;;;8.68;7.95;;;;;;;;;;5059939;28;20199;-79
2021/12/15 11:32:37;;;;;;;9.53;8.73;;;;;;;;;;5058517;28;20227;-80
2021/12/15 11:35:05;;;;;;;9.77;8.90;;;;;;;;;;5055731;28;20468;-79
2021/12/15 11:37:51;;;;;;;10.40;9.50;;;;;;;;;;5059385;28;20491;-80
2021/12/15 11:40:23;;;;;;;10.03;9.13;;;;;;;;;;5058370;28;20437;-81
2021/12/15 11:42:50;;;;;;;11.03;9.93;;;;;;;;;;5055609;28;20454;-80
2021/12/15 11:45:18;;;;;;;10.93;9.93;;;;;;;;;;5060463;28;20461;-80
2021/12/15 11:47:46;;;;;;;10.43;9.47;;;;;;;;;;5060256;28;20442;-80
2021/12/15 11:50:14;;;;;;;11.27;10.25;;;;;;;;;;5058919;28;20839;-80
2021/12/15 11:52:43;;;;;;;10.13;9.13;;;;;;;;;;5059451;28;20223;-79
2021/12/15 11:55:22;;;;;;;10.50;9.23;;;;;;;;;;5055160;28;20489;-79
2021/12/15 11:57:50;;;;;;;11.07;9.97;;;;;;;;;;5058494;28;20552;-80
2021/12/15 12:00:20;;;;;;;10.70;9.70;;;;;;;;;;5056704;28;20433;-80
2021/12/15 12:02:48;;;;;;;10.30;9.27;;;;;;;;;;5062513;28;20434;-80
2021/12/15 12:05:16;;;;;;;10.27;9.37;;;;;;;;;;5059353;28;20838;-79
2021/12/15 12:07:46;;;;;;;9.90;8.90;;;;;;;;;;5058243;28;20445;-80
2021/12/15 12:10:17;;;;;;;10.10;9.20;;;;;;;;;;5077915;28;20435;-80
2021/12/15 12:12:51;;;;;;;10.47;9.47;;;;;;;;;;5059255;28;20483;-79
2021/12/15 12:15:21;;;;;;;10.70;9.70;;;;;;;;;;5057902;28;20551;-80
2021/12/15 12:17:49;;;;;;;9.70;8.83;;;;;;;;;;5057309;28;20462;-80
2021/12/15 12:20:17;;;;;;;11.17;10.03;;;;;;;;;;5065529;28;20438;-79
2021/12/15 12:22:46;;;;;;;10.17;9.17;;;;;;;;;;5077909;28;20422;-80
2021/12/15 12:25:15;;;;;;;10.60;9.60;;;;;;;;;;5076794;28;20485;-79
2021/12/15 12:27:42;;;;;;;11.00;10.00;;;;;;;;;;5075646;28;20441;-79
2021/12/15 12:30:12;;;;;;;10.53;9.53;;;;;;;;;;5075320;28;20528;-79
2021/12/15 12:32:41;;;;;;;12.20;10.90;;;;;;;;;;5074338;28;20508;-81
2021/12/15 12:35:09;;;;;;;14.23;11.00;;;;;;;;;;5076361;28;20448;-80
2021/12/15 12:37:36;;;;;;;10.40;9.50;;;;;;;;;;5078075;28;20453;-80
2021/12/15 12:40:16;;;;;;;11.60;10.50;;;;;;;;;;5077607;28;20449;-81
2021/12/15 12:42:43;;;;;;;10.50;9.40;;;;;;;;;;5067277;28;20442;-79
2021/12/15 12:45:16;;;;;;;9.70;8.80;;;;;;;;;;5054369;28;21054;-78
2021/12/15 12:48:01;;;;;;;8.73;7.72;;;;;;;;;;5055027;28;20821;-79
2021/12/15 12:59:25;;;;;;;7.30;6.70;;;;;;;;;;5054165;28;20409;-80
2021/12/15 13:01:52;;;;;;;7.97;7.30;;;;;;;;;;5050567;28;20431;-79
2021/12/15 13:04:20;;;;;;;8.60;7.80;;;;;;;;;;5034548;28;20215;-79
2021/12/15 13:06:48;;;;;;;113.43;74.13;;;;;;;;;;5035395;28;20442;-80
2021/12/15 13:09:16;;;;;;;13.30;12.00;;;;;;;;;;5034126;28;20454;-79
2021/12/15 13:11:47;;;;;;;7.30;6.80;;;;;;;;;;5033355;28;20474;-80
2021/12/15 13:14:16;;;;;;;8.80;8.10;;;;;;;;;;5033263;28;20439;-80
2021/12/15 13:16:46;;;;;;;7.43;6.83;;;;;;;;;;5034376;28;20451;-79
2021/12/15 13:19:16;;;;;;;7.90;7.20;;;;;;;;;;5036543;28;20446;-79
2021/12/15 13:21:49;;;;;;;8.60;7.90;;;;;;;;;;5035274;28;20795;-80
2021/12/15 13:28:41;;;;;;;13.03;8.87;;;;;;;;;;5034395;28;20478;-80
2021/12/15 13:30:07;;;;;;;8.10;7.50;;;;;;;;;;5036586;28;20433;-80
2021/12/15 13:32:38;;;;;;;7.72;7.03;;;;;;;;;;5034848;28;20481;-79
2021/12/15 13:35:05;;;;;;;8.43;7.73;;;;;;;;;;5051983;28;20228;-79
2021/12/15 13:37:55;;;;;;;8.00;7.40;;;;;;;;;;5052973;28;20485;-79
2021/12/15 13:40:41;;;;;;;8.13;7.53;;;;;;;;;;5052309;28;20210;-79
2021/12/15 13:43:28;;;;;;;7.93;7.13;;;;;;;;;;5049781;28;20435;-79
2021/12/15 13:45:55;;;;;;;8.80;8.13;;;;;;;;;;5061124;28;20453;-78
2021/12/15 13:48:37;;;;;;;7.40;6.80;;;;;;;;;;5065512;28;20438;-79
2021/12/15 13:51:04;;;;;;;8.10;7.50;;;;;;;;;;5055495;28;20422;-80
2021/12/15 13:53:33;;;;;;;7.20;6.70;;;;;;;;;;5055100;28;20437;-81
2021/12/15 13:56:01;;;;;;;8.70;8.00;;;;;;;;;;5055549;28;20980;-81
2021/12/15 13:58:32;;;;;;;7.70;7.10;;;;;;;;;;5055344;28;20446;-80
2021/12/15 14:01:01;;;;;;;8.18;7.43;;;;;;;;;;5056493;28;20536;-81
2021/12/15 14:03:30;;;;;;;7.97;7.37;;;;;;;;;;5055339;28;20478;-79
2021/12/15 14:05:59;;;;;;;8.60;7.80;;;;;;;;;;5054070;28;20457;-79
2021/12/15 14:08:30;;;;;;;9.20;8.30;;;;;;;;;;5053671;28;20426;-81
2021/12/15 14:11:01;;;;;;;8.67;8.00;;;;;;;;;;5055324;28;20428;-82
2021/12/15 14:13:39;;;;;;;8.07;7.47;;;;;;;;;;5055531;28;20935;-82
2021/12/15 14:16:07;;;;;;;9.02;8.30;;;;;;;;;;5054802;28;20688;-82
2021/12/15 14:18:34;;;;;;;9.13;8.43;;;;;;;;;;5054599;28;20206;-80
2021/12/15 14:21:04;;;;;;;8.00;7.27;;;;;;;;;;5054656;28;20453;-81
2021/12/15 14:23:32;;;;;;;9.03;8.23;;;;;;;;;;5054645;28;20430;-80
2021/12/15 14:26:02;;;;;;;8.17;7.57;;;;;;;;;;5055810;28;20446;-80
2021/12/15 14:28:30;;;;;;;8.13;7.38;;;;;;;;;;5055879;28;20426;-80
2021/12/15 14:31:00;;;;;;;7.67;7.07;;;;;;;;;;5075614;28;20179;-84
2021/12/15 14:33:28;;;;;;;7.40;6.70;;;;;;;;;;5076879;28;20462;-84
2021/12/15 14:35:57;;;;;;;7.70;6.97;;;;;;;;;;5075979;28;20477;-83
2021/12/15 14:38:35;;;;;;;8.30;7.70;;;;;;;;;;5076015;28;20309;-83
2021/12/15 14:41:08;;;;;;;8.27;7.67;;;;;;;;;;5074682;28;20452;-84
2021/12/15 14:43:35;;;;;;;8.00;7.30;;;;;;;;;;5073505;28;20438;-81
2021/12/15 14:46:02;;;;;;;8.20;7.47;;;;;;;;;;5073387;28;20465;-82
2021/12/15 14:48:29;;;;;;;7.10;6.47;;;;;;;;;;5074275;28;20446;-82
2021/12/15 14:50:57;;;;;;;7.27;6.53;;;;;;;;;;5069572;28;20433;-82
2021/12/15 14:53:25;;;;;;;8.20;7.60;;;;;;;;;;5055495;28;20489;-80
2021/12/15 14:55:52;;;;;;;12.47;7.03;;;;;;;;;;5056810;28;20567;-81
2021/12/15 14:58:23;;;;;;;7.13;6.63;;;;;;;;;;5059291;28;20821;-81
2021/12/15 15:00:50;;;;;;;7.57;6.97;;;;;;;;;;5063913;28;20434;-83
2021/12/15 15:03:18;;;;;;;7.20;6.60;;;;;;;;;;5059899;28;20475;-80
2021/12/15 15:05:46;;;;;;;6.80;6.30;;;;;;;;;;5058843;28;20514;-82
2021/12/15 15:08:15;;;;;;;6.97;6.27;;;;;;;;;;5059396;28;20643;-82
2021/12/15 15:10:43;;;;;;;6.80;6.20;;;;;;;;;;5057209;28;20450;-79
2021/12/15 15:13:10;;;;;;;6.63;6.13;;;;;;;;;;5058799;28;20480;-81
2021/12/15 15:15:40;;;;;;;7.70;7.10;;;;;;;;;;5060695;28;20218;-80
2021/12/15 15:18:17;;;;;;;6.77;6.20;;;;;;;;;;5057939;28;20257;-80
2021/12/15 15:20:46;;;;;;;8.10;7.40;;;;;;;;;;5057105;28;20444;-79
2021/12/15 15:23:14;;;;;;;7.23;6.70;;;;;;;;;;5057925;28;20442;-79
2021/12/15 15:25:43;;;;;;;7.70;7.07;;;;;;;;;;5056936;28;20454;-80
2021/12/15 15:28:11;;;;;;;8.17;6.57;;;;;;;;;;5053310;28;20469;-80
2021/12/15 15:30:40;;;;;;;7.47;6.88;;;;;;;;;;5056916;28;20437;-80
2021/12/15 15:33:08;;;;;;;8.10;7.40;;;;;;;;;;5056831;28;20219;-81
2021/12/15 15:35:38;;;;;;;8.63;7.90;;;;;;;;;;5056877;28;20462;-80
2021/12/15 15:38:10;;;;;;;7.87;7.30;;;;;;;;;;5057532;28;20437;-80
2021/12/15 15:40:39;;;;;;;7.45;6.75;;;;;;;;;;5057820;28;20445;-80
2021/12/15 15:43:08;;;;;;;7.40;6.80;;;;;;;;;;5057275;28;20294;-79
2021/12/15 15:45:37;;;;;;;7.50;6.90;;;;;;;;;;5056395;28;20565;-80
2021/12/15 15:48:08;;;;;;;7.60;7.00;;;;;;;;;;5054293;28;20450;-80
2021/12/15 15:50:37;;;;;;;7.17;6.63;;;;;;;;;;5036578;28;20446;-79